Rochefort, Belgium
Current Conditions -  °F | °C
As of 4:55 AM on Monday 24 Nov 2014 (Local Time) from EBFS Reporting Station
Light Rain Light Rain  
Wind Chill: 41°   Ceiling: 300
Heat Index: 46°   Visibility: 4mi
Dew Point: 46°   Wind: 10mph
Humidity: 100%   Direction: 350°N
Pressure: 30.15"   Gusts: NA
Location:  50.16°N, 5.22°E
Report Text: EBFS 240355Z 35009KT 6000 -RA BKN003 BKN006 08/08 Q1021 YLO
Loading
Personal Weather Stations






























Interactive Weather Map New forecast layout! Learn more

10-Day Weather Forecast

Advertisements
Track Severe Weather on mobile